createdAt,value
2018-02-20T04:32:41.116Z,-4.50
2018-02-20T04:35:08.749Z,-4.60
2018-02-20T04:37:36.424Z,-4.50
2018-02-20T04:40:04.056Z,-4.50
2018-02-20T04:42:32.471Z,-4.50
2018-02-20T04:45:00.163Z,-4.50
2018-02-20T04:47:27.914Z,-4.50
2018-02-20T04:49:55.779Z,-4.50
2018-02-20T04:52:23.541Z,-4.50
2018-02-20T04:54:51.305Z,-4.40
2018-02-20T04:57:19.067Z,-4.40
2018-02-20T04:59:46.933Z,-4.50
2018-02-20T05:02:14.696Z,-4.50
2018-02-20T05:04:42.458Z,-4.50
2018-02-20T05:07:10.221Z,-4.50
2018-02-20T05:09:37.906Z,-4.50
2018-02-20T05:12:05.669Z,-4.40
2018-02-20T05:14:33.410Z,-4.40
2018-02-20T05:17:01.172Z,-4.20
2018-02-20T05:19:28.851Z,-4.20
2018-02-20T05:21:56.514Z,-4.10
2018-02-20T05:24:24.172Z,-4.20
2018-02-20T05:26:51.939Z,-4.10
2018-02-20T05:29:19.595Z,-4.00
2018-02-20T05:31:47.441Z,-3.80
2018-02-20T05:34:15.067Z,-3.80
2018-02-20T05:36:42.865Z,-3.80
2018-02-20T05:39:10.729Z,-3.80
2018-02-20T05:41:38.408Z,-3.80
2018-02-20T05:44:06.085Z,-3.70
2018-02-20T05:46:33.915Z,-3.60
2018-02-20T05:49:01.600Z,-3.60
2018-02-20T05:51:29.344Z,-3.60
2018-02-20T05:53:57.020Z,-3.50
2018-02-20T05:56:24.763Z,-3.70
2018-02-20T05:58:52.526Z,-3.60
2018-02-20T06:01:20.391Z,-3.50
2018-02-20T06:03:48.154Z,-3.50
2018-02-20T06:06:15.833Z,-3.60
2018-02-20T06:08:43.792Z,-3.50
2018-02-20T06:11:11.547Z,-3.40
2018-02-20T06:13:39.191Z,-3.40
2018-02-20T06:16:06.888Z,-3.30
2018-02-20T06:18:34.548Z,-3.30
2018-02-20T06:21:02.208Z,-3.20
2018-02-20T06:23:29.974Z,-3.20
2018-02-20T06:25:57.815Z,-3.20
2018-02-20T06:28:25.500Z,-3.20
2018-02-20T06:30:53.238Z,-3.30
2018-02-20T06:33:20.921Z,-3.30
2018-02-20T06:35:48.663Z,-3.30
2018-02-20T06:38:16.448Z,-3.20
2018-02-20T06:40:44.190Z,-3.30
2018-02-20T06:43:11.954Z,-3.30
2018-02-20T06:45:39.714Z,-3.30
2018-02-20T06:48:07.364Z,-3.30
2018-02-20T06:50:35.039Z,-3.30
2018-02-20T06:53:02.680Z,-3.30
2018-02-20T06:55:30.317Z,-3.30
2018-02-20T06:57:58.023Z,-3.20
2018-02-20T07:00:25.664Z,-3.10
2018-02-20T07:02:53.302Z,-3.10
2018-02-20T07:05:21.223Z,-3.00
2018-02-20T07:07:48.965Z,-3.00
2018-02-20T07:10:16.696Z,-3.00
2018-02-20T07:12:44.490Z,-3.10
2018-02-20T07:15:12.357Z,-3.00
2018-02-20T07:17:40.122Z,-3.10
2018-02-20T07:20:07.905Z,-3.10
2018-02-20T07:22:35.580Z,-3.00
2018-02-20T07:25:03.218Z,-3.00
2018-02-20T07:27:30.884Z,-3.00
2018-02-20T07:29:58.626Z,-2.90
2018-02-20T07:32:26.389Z,-2.90
2018-02-20T07:34:54.152Z,-2.90
2018-02-20T07:37:22.023Z,-2.90
2018-02-20T07:39:49.780Z,-3.00
2018-02-20T07:42:17.465Z,-2.90
2018-02-20T07:44:45.306Z,-2.70
2018-02-20T07:47:12.987Z,-2.60
2018-02-20T07:49:40.730Z,-2.60
2018-02-20T07:52:08.421Z,-2.60
2018-02-20T07:54:36.387Z,-2.50
2018-02-20T07:57:04.940Z,-2.30
2018-02-20T07:59:32.702Z,-2.30
2018-02-20T08:02:00.332Z,-2.10
2018-02-20T08:04:28.127Z,-1.90
2018-02-20T08:06:55.889Z,-1.90
2018-02-20T08:09:23.652Z,-1.80
2018-02-20T08:11:51.416Z,-1.70
2018-02-20T08:14:19.180Z,-1.70
2018-02-20T08:16:46.838Z,-1.60
2018-02-20T08:19:14.602Z,-1.50
2018-02-20T08:21:42.236Z,-1.50
2018-02-20T08:24:10.062Z,-1.40
2018-02-20T08:26:38.606Z,-1.30
2018-02-20T08:29:06.370Z,-1.30
2018-02-20T08:31:34.034Z,-1.20
2018-02-20T08:34:01.712Z,-1.10
2018-02-20T08:36:30.377Z,-1.10
2018-02-20T08:38:58.140Z,-1.10
2018-02-20T08:41:25.820Z,-1.20
2018-02-20T08:43:53.490Z,-1.00
2018-02-20T08:46:21.125Z,-0.90
2018-02-20T08:48:48.874Z,-0.90
2018-02-20T08:51:16.564Z,-0.80
2018-02-20T08:53:44.201Z,-0.80
2018-02-20T08:56:11.836Z,-0.60
2018-02-20T08:58:39.494Z,-0.60
2018-02-20T09:01:07.133Z,-0.50
2018-02-20T09:03:35.599Z,-0.40
2018-02-20T09:06:04.000Z,-0.40
2018-02-20T09:08:31.640Z,-0.50
2018-02-20T09:11:00.085Z,-0.60
2018-02-20T09:13:27.744Z,-0.60
2018-02-20T09:15:55.384Z,-0.60
2018-02-20T09:18:23.104Z,-0.50
2018-02-20T09:20:50.758Z,-0.50
2018-02-20T09:23:18.419Z,-0.40
2018-02-20T09:25:46.868Z,0.10
2018-02-20T09:28:14.508Z,0.10
2018-02-20T09:30:42.136Z,0.30
2018-02-20T09:33:10.584Z,0.40
2018-02-20T09:35:38.216Z,0.40
2018-02-20T09:38:05.852Z,0.40
2018-02-20T09:40:33.526Z,0.60
2018-02-20T09:43:01.152Z,0.70
2018-02-20T09:45:29.544Z,0.80
2018-02-20T09:47:57.196Z,0.80
2018-02-20T09:50:24.829Z,0.80
2018-02-20T09:52:52.506Z,1.00
2018-02-20T09:55:20.899Z,0.80
2018-02-20T09:57:48.528Z,0.80
2018-02-20T10:00:16.217Z,0.70
2018-02-20T10:02:43.851Z,0.50
2018-02-20T10:05:11.475Z,0.40
2018-02-20T10:07:39.133Z,0.50
2018-02-20T10:10:06.760Z,0.50
2018-02-20T10:12:34.432Z,0.60
2018-02-20T10:15:02.061Z,0.70
2018-02-20T10:17:30.465Z,0.90
2018-02-20T10:19:58.260Z,0.90
2018-02-20T10:22:25.920Z,0.80
2018-02-20T10:24:53.600Z,1.00
2018-02-20T10:27:22.285Z,1.00
2018-02-20T10:29:50.048Z,1.00
2018-02-20T10:32:17.796Z,1.00
2018-02-20T10:34:45.656Z,1.10
2018-02-20T10:37:13.336Z,1.10
2018-02-20T10:39:41.079Z,1.20
2018-02-20T10:42:08.947Z,1.10
2018-02-20T10:44:36.605Z,1.30
2018-02-20T10:47:04.240Z,1.40
2018-02-20T10:49:32.032Z,1.50
2018-02-20T10:51:59.713Z,1.50
2018-02-20T10:54:27.554Z,1.50
2018-02-20T10:56:55.317Z,1.40
2018-02-20T10:59:23.080Z,1.30
2018-02-20T11:01:50.847Z,1.40
2018-02-20T11:04:18.605Z,1.40
2018-02-20T11:06:46.284Z,1.40
2018-02-20T11:09:14.029Z,1.40
2018-02-20T11:11:41.691Z,1.20
2018-02-20T11:14:09.371Z,1.30
2018-02-20T11:16:37.937Z,1.50
2018-02-20T11:19:05.612Z,1.50
2018-02-20T11:21:33.458Z,1.50
2018-02-20T11:24:01.221Z,1.50
2018-02-20T11:26:28.983Z,1.60
2018-02-20T11:28:56.850Z,1.50
2018-02-20T11:31:24.611Z,1.40
2018-02-20T11:33:52.292Z,1.40
2018-02-20T11:36:20.855Z,1.40
2018-02-20T11:38:48.620Z,1.40
2018-02-20T11:41:16.380Z,1.40
2018-02-20T11:43:44.061Z,1.40
2018-02-20T11:46:11.805Z,1.50
2018-02-20T11:48:39.584Z,1.60
2018-02-20T11:51:07.328Z,1.50
2018-02-20T11:53:34.990Z,1.50
2018-02-20T11:56:02.772Z,1.70
2018-02-20T11:58:30.400Z,1.70
2018-02-20T12:00:58.092Z,1.70
2018-02-20T12:03:27.372Z,1.80
2018-02-20T12:05:55.061Z,1.80
2018-02-20T12:08:22.816Z,1.90
2018-02-20T12:10:50.559Z,1.80
2018-02-20T12:13:18.322Z,1.80
2018-02-20T12:15:46.084Z,1.80
2018-02-20T12:18:13.744Z,1.90
2018-02-20T12:20:41.408Z,1.90
2018-02-20T12:23:09.068Z,1.90
2018-02-20T12:25:36.833Z,1.90
2018-02-20T12:28:04.595Z,2.00
2018-02-20T12:30:32.358Z,1.90
2018-02-20T12:33:00.224Z,2.00
2018-02-20T12:35:27.984Z,2.10
2018-02-20T12:37:55.747Z,2.20
2018-02-20T12:40:23.405Z,2.10
2018-02-20T12:42:51.056Z,1.90
2018-02-20T12:45:18.732Z,1.90
2018-02-20T12:47:46.367Z,1.80
2018-02-20T12:50:14.001Z,1.80
2018-02-20T12:52:42.438Z,1.90
2018-02-20T12:55:10.064Z,1.80
2018-02-20T12:57:37.700Z,1.90
2018-02-20T13:00:06.587Z,2.30
2018-02-20T13:02:34.246Z,2.30
2018-02-20T13:05:02.652Z,2.40
2018-02-20T13:07:30.347Z,2.40
2018-02-20T13:09:58.776Z,2.60
2018-02-20T13:12:27.253Z,2.70
2018-02-20T13:14:54.888Z,2.70
2018-02-20T13:17:22.520Z,2.70
2018-02-20T13:19:50.179Z,2.60
2018-02-20T13:22:17.808Z,2.70
2018-02-20T13:24:45.465Z,2.80
2018-02-20T13:27:13.095Z,2.90
2018-02-20T13:29:41.517Z,2.80
2018-02-20T13:32:09.151Z,2.70
2018-02-20T13:34:36.816Z,2.70
2018-02-20T13:37:04.444Z,2.70
2018-02-20T13:39:32.084Z,2.80
2018-02-20T13:41:59.736Z,2.90
2018-02-20T13:44:27.396Z,2.90
2018-02-20T13:46:55.028Z,3.00
2018-02-20T13:49:22.693Z,3.10
2018-02-20T13:51:50.360Z,3.20
2018-02-20T13:54:17.992Z,3.20
2018-02-20T13:56:45.676Z,3.10
2018-02-20T13:59:13.300Z,3.20
2018-02-20T14:01:41.707Z,3.20
2018-02-20T14:04:09.412Z,3.20
2018-02-20T14:06:37.051Z,3.30
2018-02-20T14:09:04.689Z,3.40
2018-02-20T14:11:32.345Z,3.50
2018-02-20T14:13:59.977Z,3.50
2018-02-20T14:16:28.421Z,3.50
2018-02-20T14:18:56.051Z,3.40
2018-02-20T14:21:23.692Z,3.50
2018-02-20T14:23:51.362Z,3.50
2018-02-20T14:26:18.992Z,3.50
2018-02-20T14:28:47.416Z,3.40
2018-02-20T14:31:15.049Z,3.40
2018-02-20T14:33:42.706Z,3.40
2018-02-20T14:36:11.101Z,3.30
2018-02-20T14:38:38.755Z,3.30
2018-02-20T14:41:06.408Z,3.30
2018-02-20T14:43:34.040Z,3.30
2018-02-20T14:46:01.719Z,3.30
2018-02-20T14:48:30.120Z,3.30
2018-02-20T14:50:57.753Z,3.30
2018-02-20T14:53:26.202Z,3.10
2018-02-20T14:55:53.827Z,3.10
2018-02-20T14:58:22.337Z,3.10
2018-02-20T15:00:50.004Z,3.10
2018-02-20T15:03:17.632Z,2.90
2018-02-20T15:05:45.268Z,2.80
2018-02-20T15:08:12.931Z,2.70
2018-02-20T15:10:40.594Z,2.60
2018-02-20T15:13:08.249Z,2.50
2018-02-20T15:15:35.926Z,2.50
2018-02-20T15:18:03.629Z,2.60
2018-02-20T15:20:31.288Z,2.70
2018-02-20T15:22:59.134Z,2.80
2018-02-20T15:25:26.817Z,2.80
2018-02-20T15:27:54.558Z,2.50
2018-02-20T15:30:22.344Z,2.50
2018-02-20T15:32:50.085Z,2.50
2018-02-20T15:35:17.849Z,2.40
2018-02-20T15:37:45.628Z,2.40
2018-02-20T15:40:13.374Z,2.30
2018-02-20T15:42:41.136Z,2.20
2018-02-20T15:45:08.899Z,2.20
2018-02-20T15:47:36.560Z,2.10
2018-02-20T15:50:04.323Z,2.20
2018-02-20T15:52:32.085Z,2.20
2018-02-20T15:54:59.950Z,2.30
2018-02-20T15:57:27.714Z,2.30
2018-02-20T15:59:55.477Z,2.20
2018-02-20T16:02:23.444Z,2.20
2018-02-20T16:04:51.206Z,2.10
2018-02-20T16:07:18.970Z,2.10
2018-02-20T16:09:46.649Z,2.00
2018-02-20T16:12:15.213Z,1.90
2018-02-20T16:14:42.892Z,1.90
2018-02-20T16:17:10.740Z,1.90
2018-02-20T16:19:38.501Z,1.80
2018-02-20T16:22:06.185Z,1.80
2018-02-20T16:24:33.945Z,1.70
2018-02-20T16:27:01.583Z,1.70
2018-02-20T16:29:29.374Z,1.60
2018-02-20T16:31:57.118Z,1.50
2018-02-20T16:34:24.874Z,1.60
2018-02-20T16:36:52.641Z,1.50
2018-02-20T16:39:20.421Z,1.40
2018-02-20T16:41:48.084Z,1.40
2018-02-20T16:44:15.824Z,1.40
2018-02-20T16:46:43.588Z,1.30
2018-02-20T16:49:11.326Z,1.30
2018-02-20T16:51:39.745Z,1.20
2018-02-20T16:54:07.489Z,1.20
2018-02-20T16:56:35.168Z,1.20
2018-02-20T16:59:02.911Z,1.10
2018-02-20T17:01:30.680Z,1.10
2018-02-20T17:03:58.334Z,1.00
2018-02-20T17:06:26.100Z,1.00
2018-02-20T17:08:53.966Z,1.00
2018-02-20T17:11:21.646Z,0.90
2018-02-20T17:13:49.282Z,0.90
2018-02-20T17:16:16.979Z,0.90
2018-02-20T17:18:44.795Z,1.00
2018-02-20T17:21:12.910Z,1.00
2018-02-20T17:23:41.333Z,0.90
2018-02-20T17:26:08.960Z,0.90
2018-02-20T17:28:37.507Z,0.80
2018-02-20T17:31:05.210Z,0.80
2018-02-20T17:33:33.627Z,0.60
2018-02-20T17:36:01.261Z,0.60
2018-02-20T17:38:29.062Z,0.50
2018-02-20T17:40:56.825Z,0.40
2018-02-20T17:43:24.589Z,0.30
2018-02-20T17:45:52.455Z,0.30
2018-02-20T17:48:20.215Z,0.20
2018-02-20T17:50:47.878Z,0.20
2018-02-20T17:53:15.676Z,0.10
2018-02-20T17:55:43.404Z,0.10
2018-02-20T17:58:11.268Z,0.10
2018-02-20T18:00:39.133Z,0.00
2018-02-20T18:03:06.785Z,0.00
2018-02-20T18:05:34.557Z,0.00
2018-02-20T18:08:02.322Z,0.00
2018-02-20T18:10:30.394Z,-0.10
2018-02-20T18:12:58.085Z,-0.10
2018-02-20T18:15:25.728Z,-0.20
2018-02-20T18:17:53.373Z,-0.20
2018-02-20T18:20:21.036Z,-0.20
2018-02-20T18:22:48.706Z,-0.20
2018-02-20T18:25:16.400Z,-0.20
2018-02-20T18:27:44.805Z,-0.30
2018-02-20T18:30:12.828Z,-0.30
2018-02-20T18:32:40.554Z,-0.30
2018-02-20T18:35:08.190Z,-0.30
2018-02-20T18:37:35.832Z,-0.30
2018-02-20T18:40:04.289Z,-0.50
2018-02-20T18:42:32.083Z,-0.60
2018-02-20T18:44:59.767Z,-0.50
2018-02-20T18:47:27.579Z,-0.60
2018-02-20T18:49:56.757Z,-0.70
2018-02-20T18:52:24.421Z,-0.70
2018-02-20T18:54:53.072Z,-0.60
2018-02-20T18:57:21.628Z,-0.50
2018-02-20T18:59:49.404Z,-0.50
2018-02-20T19:02:17.070Z,-0.60
2018-02-20T19:04:44.732Z,-0.70
2018-02-20T19:07:12.390Z,-0.70
2018-02-20T19:09:40.052Z,-0.80
2018-02-20T19:12:09.147Z,-0.90
2018-02-20T19:14:36.832Z,-1.10
2018-02-20T19:17:04.617Z,-1.20
2018-02-20T19:19:32.292Z,-1.40
2018-02-20T19:21:59.961Z,-1.50
2018-02-20T19:24:28.368Z,-1.70
2018-02-20T19:26:56.049Z,-1.70
2018-02-20T19:29:23.688Z,-1.70
2018-02-20T19:31:51.328Z,-1.70
2018-02-20T19:34:19.757Z,-1.70
2018-02-20T19:36:47.397Z,-1.70
2018-02-20T19:39:15.179Z,-1.70
2018-02-20T19:41:42.942Z,-1.70
2018-02-20T19:44:10.728Z,-1.70
2018-02-20T19:46:38.468Z,-1.60
2018-02-20T19:49:06.231Z,-1.40
2018-02-20T19:51:33.994Z,-1.40
2018-02-20T19:54:01.757Z,-1.20
2018-02-20T19:56:29.540Z,-1.10
2018-02-20T19:58:58.102Z,-1.00
2018-02-20T20:01:25.867Z,-1.00
2018-02-20T20:03:53.732Z,-1.00
2018-02-20T20:06:21.417Z,-1.00
2018-02-20T20:08:49.256Z,-1.00
2018-02-20T20:11:16.945Z,-1.10
2018-02-20T20:13:44.680Z,-1.00
2018-02-20T20:16:12.546Z,-1.10
2018-02-20T20:18:40.184Z,-1.10
2018-02-20T20:21:07.866Z,-1.10
2018-02-20T20:23:35.573Z,-1.10
2018-02-20T20:26:04.109Z,-1.10
2018-02-20T20:28:31.871Z,-1.10
2018-02-20T20:30:59.551Z,-1.10
2018-02-20T20:33:27.316Z,-1.20
2018-02-20T20:35:55.058Z,-1.10
2018-02-20T20:38:22.820Z,-1.20
2018-02-20T20:40:50.584Z,-1.20
2018-02-20T20:43:18.346Z,-1.40
2018-02-20T20:45:46.109Z,-1.60
2018-02-20T20:48:13.790Z,-1.50
2018-02-20T20:50:41.429Z,-1.50
2018-02-20T20:53:09.218Z,-1.50
2018-02-20T20:55:37.775Z,-1.50
2018-02-20T20:58:05.416Z,-1.50
2018-02-20T21:00:33.122Z,-1.50
2018-02-20T21:03:00.776Z,-1.40
2018-02-20T21:05:28.622Z,-1.60
2018-02-20T21:07:56.304Z,-1.80
2018-02-20T21:10:24.147Z,-1.90
2018-02-20T21:12:51.827Z,-1.90
2018-02-20T21:15:19.676Z,-1.80
2018-02-20T21:17:47.436Z,-1.80
2018-02-20T21:20:15.200Z,-1.80
2018-02-20T21:22:42.899Z,-1.90
2018-02-20T21:25:11.362Z,-1.80
2018-02-20T21:27:39.205Z,-1.80
2018-02-20T21:30:07.687Z,-1.80
2018-02-20T21:32:35.446Z,-1.90
2018-02-20T21:35:03.210Z,-1.90
2018-02-20T21:37:30.897Z,-2.00
2018-02-20T21:39:58.633Z,-2.10
2018-02-20T21:42:26.397Z,-2.10
2018-02-20T21:44:54.076Z,-2.10
2018-02-20T21:47:21.845Z,-2.00
2018-02-20T21:49:50.402Z,-2.10
2018-02-20T21:52:18.076Z,-2.10
2018-02-20T21:54:45.825Z,-2.20
2018-02-20T21:57:13.591Z,-2.20
2018-02-20T21:59:41.263Z,-2.10
2018-02-20T22:02:08.929Z,-2.10
2018-02-20T22:04:36.672Z,-2.10
2018-02-20T22:07:04.434Z,-2.00
2018-02-20T22:09:32.232Z,-2.00
2018-02-20T22:12:00.697Z,-2.00
2018-02-20T22:14:28.440Z,-2.10
2018-02-20T22:16:56.096Z,-2.00
2018-02-20T22:19:23.761Z,-2.00
2018-02-20T22:21:51.629Z,-2.00
2018-02-20T22:24:19.390Z,-2.10
2018-02-20T22:26:47.152Z,-2.20
2018-02-20T22:29:15.027Z,-2.20
2018-02-20T22:31:42.700Z,-2.30
2018-02-20T22:34:10.365Z,-2.40
2018-02-20T22:36:38.821Z,-2.40
2018-02-20T22:39:06.479Z,-2.40
2018-02-20T22:41:34.264Z,-2.40
2018-02-20T22:44:01.927Z,-2.50
2018-02-20T22:46:29.585Z,-2.60
2018-02-20T22:48:57.348Z,-2.70
2018-02-20T22:51:25.004Z,-2.70
2018-02-20T22:53:52.753Z,-2.90
2018-02-20T22:56:20.427Z,-3.00
2018-02-20T22:58:48.088Z,-3.00
2018-02-20T23:01:15.936Z,-3.00
2018-02-20T23:03:43.621Z,-3.10
2018-02-20T23:06:11.277Z,-3.00
2018-02-20T23:08:39.122Z,-3.00
2018-02-20T23:11:06.800Z,-3.10
2018-02-20T23:13:34.563Z,-3.10
2018-02-20T23:16:02.224Z,-3.10
2018-02-20T23:18:29.968Z,-3.20
2018-02-20T23:20:57.648Z,-3.20
2018-02-20T23:23:25.308Z,-3.20
2018-02-20T23:25:53.074Z,-3.20
2018-02-20T23:28:20.823Z,-3.30
